createdAt,value
2022-12-02T00:01:19.622Z,8.437
2022-12-02T00:03:20.072Z,8.447
2022-12-02T00:04:19.754Z,8.447
2022-12-02T00:05:19.633Z,8.437
2022-12-02T00:06:19.864Z,8.447
2022-12-02T00:07:19.744Z,8.437
2022-12-02T00:08:20.277Z,8.437
2022-12-02T00:09:19.300Z,8.437
2022-12-02T00:10:19.209Z,8.437
2022-12-02T00:11:19.876Z,8.437
2022-12-02T00:12:19.986Z,8.437
2022-12-02T00:13:19.447Z,8.437
2022-12-02T00:14:19.606Z,8.437
2022-12-02T00:15:20.280Z,8.437
2022-12-02T00:16:19.620Z,8.437
2022-12-02T00:17:19.998Z,8.437
2022-12-02T00:18:19.531Z,8.437
2022-12-02T00:19:19.875Z,8.437
2022-12-02T00:20:20.571Z,8.437
2022-12-02T00:21:20.104Z,8.437
2022-12-02T00:22:19.600Z,8.437
2022-12-02T00:23:20.142Z,8.437
2022-12-02T00:24:19.603Z,8.437
2022-12-02T00:25:19.919Z,8.437
2022-12-02T00:26:20.056Z,8.437
2022-12-02T00:27:19.255Z,8.437
2022-12-02T00:28:19.410Z,8.437
2022-12-02T00:29:19.157Z,8.437
2022-12-02T00:30:19.636Z,8.437
2022-12-02T00:31:20.034Z,8.426
2022-12-02T00:32:19.163Z,8.426
2022-12-02T00:33:19.075Z,8.437
2022-12-02T00:34:18.537Z,8.437
2022-12-02T00:35:20.269Z,8.437
2022-12-02T00:36:19.650Z,8.437
2022-12-02T00:37:20.141Z,8.437
2022-12-02T00:38:20.070Z,8.437
2022-12-02T00:39:19.441Z,8.437
2022-12-02T00:40:20.013Z,8.437
2022-12-02T00:41:19.405Z,8.437
2022-12-02T00:42:19.563Z,8.437
2022-12-02T00:43:27.601Z,8.416
2022-12-02T00:44:19.847Z,8.416
2022-12-02T00:45:20.970Z,8.416
2022-12-02T00:47:02.762Z,8.437
2022-12-02T00:47:20.429Z,8.437
2022-12-02T00:48:20.140Z,8.437
2022-12-02T00:49:19.589Z,8.437
2022-12-02T00:50:20.213Z,8.437
2022-12-02T00:51:19.363Z,8.426
2022-12-02T00:52:19.703Z,8.426
2022-12-02T00:53:20.397Z,8.437
2022-12-02T00:54:19.795Z,8.437
2022-12-02T00:55:20.755Z,8.437
2022-12-02T00:56:20.415Z,8.437
2022-12-02T00:57:20.197Z,8.437
2022-12-02T00:58:19.837Z,8.437
2022-12-02T00:59:20.408Z,8.437
2022-12-02T01:00:20.489Z,8.437
2022-12-02T01:01:22.652Z,8.426
2022-12-02T01:02:20.391Z,8.426
2022-12-02T01:03:19.926Z,8.437
2022-12-02T01:05:20.351Z,8.437
2022-12-02T01:06:20.043Z,8.437
2022-12-02T01:07:19.601Z,8.437
2022-12-02T01:08:20.441Z,8.437
2022-12-02T01:09:20.096Z,8.416
2022-12-02T01:10:19.524Z,8.406
2022-12-02T01:11:19.574Z,8.437
2022-12-02T01:12:19.648Z,8.437
2022-12-02T01:13:20.163Z,8.416
2022-12-02T01:14:20.355Z,8.437
2022-12-02T01:15:20.469Z,8.428
2022-12-02T01:16:19.849Z,8.424
2022-12-02T01:17:20.310Z,8.383
2022-12-02T01:18:19.973Z,8.424
2022-12-02T01:19:19.418Z,8.437
2022-12-02T01:20:20.153Z,8.437
2022-12-02T01:21:19.970Z,8.428
2022-12-02T01:22:20.601Z,8.424
2022-12-02T01:23:20.237Z,8.428
2022-12-02T01:24:19.982Z,8.412
2022-12-02T01:25:19.651Z,8.437
2022-12-02T01:26:20.253Z,8.426
2022-12-02T01:27:19.670Z,8.426
2022-12-02T01:28:19.628Z,8.399
2022-12-02T01:29:19.779Z,8.383
2022-12-02T01:30:20.520Z,8.375
2022-12-02T01:31:19.683Z,8.375
2022-12-02T01:32:19.310Z,8.375
2022-12-02T01:33:19.853Z,8.375
2022-12-02T01:34:20.258Z,8.375
2022-12-02T01:35:19.935Z,8.395
2022-12-02T01:36:20.027Z,8.375
2022-12-02T01:37:19.894Z,8.375
2022-12-02T01:38:20.312Z,8.375
2022-12-02T01:39:19.897Z,8.375
2022-12-02T01:41:19.993Z,8.375
2022-12-02T01:42:19.679Z,8.375
2022-12-02T01:43:20.333Z,8.375
2022-12-02T01:44:19.765Z,8.375
2022-12-02T01:45:20.069Z,8.375
2022-12-02T01:46:19.823Z,8.375
2022-12-02T01:47:19.949Z,8.375
2022-12-02T01:48:20.335Z,8.375
2022-12-02T01:49:19.055Z,8.375
2022-12-02T01:50:19.716Z,8.375
2022-12-02T01:51:20.296Z,8.375
2022-12-02T01:52:20.001Z,8.375
2022-12-02T01:53:19.256Z,8.375
2022-12-02T01:54:19.722Z,8.375
2022-12-02T01:55:19.794Z,8.375
2022-12-02T01:56:19.998Z,8.375
2022-12-02T01:57:19.376Z,8.375
2022-12-02T01:58:19.565Z,8.375
2022-12-02T01:59:20.062Z,8.375
2022-12-02T02:00:20.018Z,8.375
2022-12-02T02:01:20.028Z,8.375
2022-12-02T02:02:19.542Z,8.375
2022-12-02T02:03:33.964Z,8.375
2022-12-02T02:04:20.298Z,8.375
2022-12-02T02:05:19.827Z,8.375
2022-12-02T02:06:20.002Z,8.375
2022-12-02T02:07:19.333Z,8.375
2022-12-02T02:08:19.684Z,8.375
2022-12-02T02:09:47.797Z,8.364
2022-12-02T02:10:20.335Z,8.364
2022-12-02T02:11:19.441Z,8.354
2022-12-02T02:12:19.958Z,8.343
2022-12-02T02:13:19.984Z,8.343
2022-12-02T02:14:19.678Z,8.375
2022-12-02T02:15:20.280Z,8.375
2022-12-02T02:16:19.734Z,8.375
2022-12-02T02:17:20.429Z,8.375
2022-12-02T02:18:19.812Z,8.375
2022-12-02T02:19:19.989Z,8.375
2022-12-02T02:20:19.734Z,8.375
2022-12-02T02:21:20.551Z,8.364
2022-12-02T02:22:19.836Z,8.312
2022-12-02T02:23:20.293Z,8.312
2022-12-02T02:24:19.701Z,8.312
2022-12-02T02:25:46.042Z,8.333
2022-12-02T02:26:19.111Z,8.333
2022-12-02T02:27:19.521Z,8.333
2022-12-02T02:28:19.452Z,8.312
2022-12-02T02:29:19.943Z,8.312
2022-12-02T02:30:20.645Z,8.312
2022-12-02T02:31:20.008Z,8.312
2022-12-02T02:32:19.766Z,8.312
2022-12-02T02:33:20.135Z,8.312
2022-12-02T02:34:19.820Z,8.312
2022-12-02T02:35:20.531Z,8.312
2022-12-02T02:36:20.090Z,8.312
2022-12-02T02:37:19.734Z,8.312
2022-12-02T02:38:20.311Z,8.312
2022-12-02T02:39:19.776Z,8.312
2022-12-02T02:40:20.521Z,8.312
2022-12-02T02:41:19.742Z,8.312
2022-12-02T02:42:20.721Z,8.312
2022-12-02T02:43:20.808Z,8.312
2022-12-02T02:44:25.353Z,8.312
2022-12-02T02:45:20.163Z,8.312
2022-12-02T02:46:19.666Z,8.312
2022-12-02T02:47:19.471Z,8.312
2022-12-02T02:48:19.503Z,8.312
2022-12-02T02:49:19.736Z,8.312
2022-12-02T02:50:20.322Z,8.312
2022-12-02T02:51:20.031Z,8.312
2022-12-02T02:52:19.351Z,8.312
2022-12-02T02:53:19.952Z,8.312
2022-12-02T02:54:20.170Z,8.312
2022-12-02T02:55:20.329Z,8.303
2022-12-02T02:56:19.866Z,8.274
2022-12-02T02:57:20.712Z,8.303
2022-12-02T02:58:20.185Z,8.274
2022-12-02T02:59:19.588Z,8.312
2022-12-02T03:00:20.863Z,8.312
2022-12-02T03:01:20.779Z,8.312
2022-12-02T03:02:20.990Z,8.274
2022-12-02T03:03:19.941Z,8.312
2022-12-02T03:04:20.773Z,8.312
2022-12-02T03:05:20.349Z,8.291
2022-12-02T03:06:20.136Z,8.25
2022-12-02T03:07:19.308Z,8.229
2022-12-02T03:08:19.770Z,8.25
2022-12-02T03:09:19.725Z,8.25
2022-12-02T03:10:19.980Z,8.25
2022-12-02T03:11:19.941Z,8.25
2022-12-02T03:12:20.012Z,8.25
2022-12-02T03:13:19.501Z,8.208
2022-12-02T03:15:20.111Z,8.25
2022-12-02T03:16:19.545Z,8.25
2022-12-02T03:17:20.753Z,8.25
2022-12-02T03:18:20.471Z,8.229
2022-12-02T03:19:19.963Z,8.25
2022-12-02T03:20:20.583Z,8.25
2022-12-02T03:21:20.053Z,8.25
2022-12-02T03:22:19.739Z,8.25
2022-12-02T03:23:20.126Z,8.239
2022-12-02T03:24:19.959Z,8.208
2022-12-02T03:25:21.157Z,8.25
2022-12-02T03:26:19.854Z,8.25
2022-12-02T03:27:20.035Z,8.239
2022-12-02T03:28:19.535Z,8.197
2022-12-02T03:29:19.877Z,8.187
2022-12-02T03:30:25.932Z,8.187
2022-12-02T03:31:20.695Z,8.187
2022-12-02T03:32:20.020Z,8.187
2022-12-02T03:33:19.520Z,8.187
2022-12-02T03:34:20.216Z,8.187
2022-12-02T03:35:20.022Z,8.187
2022-12-02T03:36:19.412Z,8.187
2022-12-02T03:37:20.199Z,8.187
2022-12-02T03:38:19.822Z,8.187
2022-12-02T03:39:20.275Z,8.187
2022-12-02T03:40:19.926Z,8.187
2022-12-02T03:41:20.291Z,8.187
2022-12-02T03:42:25.095Z,8.156
2022-12-02T03:43:19.650Z,8.156
2022-12-02T03:44:25.114Z,8.187
2022-12-02T03:45:19.636Z,8.187
2022-12-02T03:46:25.170Z,8.176
2022-12-02T03:47:19.496Z,8.176
2022-12-02T03:49:20.109Z,8.125
2022-12-02T03:50:19.354Z,8.125
2022-12-02T03:51:19.237Z,8.125
2022-12-02T03:52:19.532Z,8.125
2022-12-02T03:53:19.688Z,8.125
2022-12-02T03:54:19.925Z,8.125
2022-12-02T03:55:20.154Z,8.125
2022-12-02T03:56:24.937Z,8.125
2022-12-02T03:57:20.707Z,8.135
2022-12-02T03:58:20.060Z,8.187
2022-12-02T03:59:19.523Z,8.125
2022-12-02T04:01:19.837Z,8.125
2022-12-02T04:02:34.635Z,8.125
2022-12-02T04:03:20.768Z,8.125
2022-12-02T04:04:19.969Z,8.125
2022-12-02T04:05:19.748Z,8.125
2022-12-02T04:07:20.225Z,8.135
2022-12-02T04:08:19.562Z,8.125
2022-12-02T04:09:20.033Z,8.125
2022-12-02T04:10:19.284Z,8.114
2022-12-02T04:11:19.429Z,8.125
2022-12-02T04:12:19.946Z,8.104
2022-12-02T04:13:20.675Z,8.125
2022-12-02T04:14:20.320Z,8.125
2022-12-02T04:15:19.943Z,8.125
2022-12-02T04:16:38.971Z,8.125
2022-12-02T04:17:20.299Z,8.125
2022-12-02T04:18:19.852Z,8.125
2022-12-02T04:19:20.442Z,8.104
2022-12-02T04:20:20.015Z,8.125
2022-12-02T04:21:19.698Z,8.114
2022-12-02T04:22:20.323Z,8.125
2022-12-02T04:23:19.900Z,8.125
2022-12-02T04:24:20.638Z,8.125
2022-12-02T04:25:20.571Z,8.125
2022-12-02T04:26:20.013Z,8.125
2022-12-02T04:27:20.081Z,8.125
2022-12-02T04:28:19.754Z,8.125
2022-12-02T04:29:20.248Z,8.088
2022-12-02T04:30:20.020Z,8.112
2022-12-02T04:31:19.592Z,8.116
2022-12-02T04:32:20.310Z,8.087
2022-12-02T04:33:19.747Z,8.071
2022-12-02T04:34:20.319Z,8.024
2022-12-02T04:35:20.295Z,8.062
2022-12-02T04:36:20.180Z,8.074
2022-12-02T04:37:19.541Z,8.062
2022-12-02T04:38:20.506Z,8.062
2022-12-02T04:39:20.075Z,8.062
2022-12-02T04:40:38.949Z,8.062
2022-12-02T04:41:20.836Z,8.062
2022-12-02T04:42:48.099Z,8.062
2022-12-02T04:43:19.418Z,8.062
2022-12-02T04:44:25.468Z,8.062
2022-12-02T04:45:19.942Z,8.062
2022-12-02T04:46:42.657Z,8.062
2022-12-02T04:47:20.460Z,8.062
2022-12-02T04:48:19.547Z,8.062
2022-12-02T04:49:19.760Z,8.062
2022-12-02T04:50:20.335Z,8.062
2022-12-02T04:51:19.887Z,8.062
2022-12-02T04:52:20.496Z,8.083
2022-12-02T04:53:19.642Z,8.062
2022-12-02T04:54:19.974Z,8.062
2022-12-02T04:55:20.692Z,8.062
2022-12-02T04:56:20.258Z,8.062
2022-12-02T04:57:19.475Z,8.062
2022-12-02T04:58:20.614Z,8.062
2022-12-02T04:59:20.712Z,8.062
2022-12-02T05:01:20.391Z,8.062
2022-12-02T05:02:19.995Z,8.062
2022-12-02T05:03:20.029Z,8.062
2022-12-02T05:04:20.211Z,8.062
2022-12-02T05:05:19.698Z,8.062
2022-12-02T05:06:20.200Z,8.062
2022-12-02T05:07:20.035Z,8.020
2022-12-02T05:08:19.734Z,8.010
2022-12-02T05:09:20.240Z,8.062
2022-12-02T05:10:19.368Z,8.051
2022-12-02T05:11:20.175Z,8.051
2022-12-02T05:12:20.215Z,8.062
2022-12-02T05:13:19.938Z,8.062
2022-12-02T05:15:19.411Z,8.062
2022-12-02T05:16:20.487Z,8.062
2022-12-02T05:17:20.356Z,8.062
2022-12-02T05:18:20.027Z,8.083
2022-12-02T05:19:19.859Z,8.062
2022-12-02T05:20:20.575Z,8.062
2022-12-02T05:21:20.326Z,8.062
2022-12-02T05:22:20.305Z,8.093
2022-12-02T05:23:19.983Z,8.062
2022-12-02T05:24:19.740Z,8.062
2022-12-02T05:25:20.444Z,8.062
2022-12-02T05:26:19.934Z,8.062
2022-12-02T05:27:20.589Z,8.062
2022-12-02T05:28:19.964Z,8.062
2022-12-02T05:29:20.371Z,8.062
2022-12-02T05:30:20.632Z,8.062
2022-12-02T05:31:20.186Z,8.062
2022-12-02T05:32:20.114Z,8.062
2022-12-02T05:33:20.150Z,8.062
2022-12-02T05:34:19.517Z,8.062
2022-12-02T05:35:20.425Z,8.062
2022-12-02T05:36:20.455Z,8.062
2022-12-02T05:37:19.977Z,8.062
2022-12-02T05:38:20.035Z,8.062
2022-12-02T05:39:20.224Z,8.062
2022-12-02T05:40:20.526Z,8.062
2022-12-02T05:41:20.078Z,8.062
2022-12-02T05:42:19.641Z,8.062
2022-12-02T05:43:20.365Z,8.062
2022-12-02T05:45:20.503Z,8.062
2022-12-02T05:46:20.475Z,8.062
2022-12-02T05:47:20.431Z,8.062
2022-12-02T05:48:19.845Z,8.062
2022-12-02T05:49:20.218Z,8.062
2022-12-02T05:50:20.168Z,8.062
2022-12-02T05:51:19.695Z,8.062
2022-12-02T05:52:20.796Z,8.062
2022-12-02T05:53:20.586Z,8.062
2022-12-02T05:54:20.372Z,8.062
2022-12-02T05:55:20.074Z,8.062
2022-12-02T05:56:20.271Z,8.049
2022-12-02T05:57:27.273Z,8.062
2022-12-02T05:58:20.785Z,8.031
2022-12-02T05:59:20.535Z,7.958
2022-12-02T06:00:56.961Z,7.901
2022-12-02T06:01:20.679Z,7.901
2022-12-02T06:02:21.144Z,7.962
2022-12-02T06:03:25.299Z,8.062
2022-12-02T06:04:20.575Z,8.062
2022-12-02T06:05:20.552Z,8.062
2022-12-02T06:06:20.097Z,8.062
2022-12-02T06:07:19.659Z,8.062
2022-12-02T06:08:20.183Z,8.062
2022-12-02T06:09:20.143Z,8.035
2022-12-02T06:10:19.974Z,8.062
2022-12-02T06:11:20.528Z,8.062
2022-12-02T06:12:20.118Z,8.062
2022-12-02T06:13:20.073Z,8.062
2022-12-02T06:14:19.645Z,8.062
2022-12-02T06:15:20.741Z,8.031
2022-12-02T06:16:20.326Z,8.051
2022-12-02T06:17:20.074Z,8.031
2022-12-02T06:18:19.629Z,8.062
2022-12-02T06:19:20.521Z,8.010
2022-12-02T06:20:20.425Z,7.979
2022-12-02T06:21:28.502Z,7.962
2022-12-02T06:22:20.096Z,7.962
2022-12-02T06:23:33.790Z,8
2022-12-02T06:24:21.060Z,8
2022-12-02T06:25:25.712Z,8
2022-12-02T06:26:20.613Z,8.010
2022-12-02T06:27:25.221Z,8
2022-12-02T06:28:20.384Z,8
2022-12-02T06:29:21.121Z,8
2022-12-02T06:30:20.580Z,8
2022-12-02T06:31:20.722Z,8.020
2022-12-02T06:32:20.502Z,8.041
2022-12-02T06:33:29.108Z,8.031
2022-12-02T06:34:20.661Z,8.031
2022-12-02T06:35:28.616Z,8.051
2022-12-02T06:36:20.163Z,8.041
2022-12-02T06:37:28.247Z,8.031
2022-12-02T06:38:20.173Z,8
2022-12-02T06:39:20.033Z,8.020
2022-12-02T06:40:36.856Z,8.062
2022-12-02T06:41:20.178Z,8.062
2022-12-02T06:42:19.729Z,8.062
2022-12-02T06:43:20.553Z,8
2022-12-02T06:44:20.415Z,8
2022-12-02T06:45:24.485Z,7.937
2022-12-02T06:46:20.359Z,7.875
2022-12-02T06:47:38.574Z,7.875
2022-12-02T06:48:20.397Z,7.875
2022-12-02T06:49:20.047Z,7.895
2022-12-02T06:50:20.128Z,7.958
2022-12-02T06:51:20.197Z,7.958
2022-12-02T06:52:19.921Z,7.979
2022-12-02T06:53:42.435Z,8
2022-12-02T06:54:19.966Z,8
2022-12-02T06:55:20.813Z,8
2022-12-02T06:56:20.617Z,8.010
2022-12-02T06:57:42.697Z,8
2022-12-02T06:58:20.430Z,8
2022-12-02T06:59:19.924Z,7.989
2022-12-02T07:01:39.925Z,8
2022-12-02T07:03:20.551Z,7.968
2022-12-02T07:04:20.405Z,7.906
2022-12-02T07:05:20.310Z,7.936
2022-12-02T07:06:20.158Z,7.968
2022-12-02T07:07:19.525Z,8
2022-12-02T07:08:20.532Z,8.010
2022-12-02T07:09:25.635Z,8
2022-12-02T07:10:20.567Z,8
2022-12-02T07:11:47.936Z,8
2022-12-02T07:13:20.145Z,8
2022-12-02T07:14:20.041Z,8
2022-12-02T07:15:20.517Z,8
2022-12-02T07:17:20.482Z,8
2022-12-02T07:18:20.454Z,8
2022-12-02T07:19:20.280Z,8
2022-12-02T07:21:20.293Z,7.958
2022-12-02T07:22:20.081Z,7.989
2022-12-02T07:23:20.034Z,8
2022-12-02T07:24:19.895Z,8
2022-12-02T07:25:20.706Z,8
2022-12-02T07:26:20.250Z,7.947
2022-12-02T07:27:19.810Z,8
2022-12-02T07:28:20.430Z,8
2022-12-02T07:29:23.162Z,7.987
2022-12-02T07:30:20.312Z,7.987
2022-12-02T07:31:20.398Z,7.964
2022-12-02T07:32:19.901Z,8
2022-12-02T07:33:20.975Z,7.919
2022-12-02T07:34:19.689Z,7.875
2022-12-02T07:35:20.888Z,7.958
2022-12-02T07:36:20.790Z,7.974
2022-12-02T07:37:20.597Z,7.991
2022-12-02T07:38:36.471Z,8
2022-12-02T07:39:20.072Z,8
2022-12-02T07:40:20.046Z,8
2022-12-02T07:41:19.945Z,8
2022-12-02T07:43:20.294Z,8
2022-12-02T07:44:20.417Z,8
2022-12-02T07:45:20.973Z,7.936
2022-12-02T07:47:20.280Z,7.989
2022-12-02T07:48:20.035Z,8
2022-12-02T07:49:19.437Z,7.989
2022-12-02T07:50:20.449Z,7.989
2022-12-02T07:51:20.127Z,8
2022-12-02T07:52:20.169Z,8
2022-12-02T07:54:02.277Z,7.987
2022-12-02T07:54:20.695Z,7.987
2022-12-02T07:55:26.005Z,8
2022-12-02T07:56:20.450Z,7.979
2022-12-02T07:57:20.875Z,8
2022-12-02T07:58:20.946Z,8
2022-12-02T07:59:21.872Z,7.968
2022-12-02T08:01:26.936Z,7.936
2022-12-02T08:02:21.019Z,7.936
2022-12-02T08:03:19.591Z,7.885
2022-12-02T08:04:20.438Z,7.916
2022-12-02T08:05:20.190Z,7.906
2022-12-02T08:06:19.438Z,7.936
2022-12-02T08:07:20.400Z,7.926
2022-12-02T08:08:19.784Z,7.936
2022-12-02T08:09:20.704Z,7.875
2022-12-02T08:10:20.805Z,7.926
2022-12-02T08:11:20.363Z,7.936
2022-12-02T08:12:20.098Z,7.936
2022-12-02T08:13:19.938Z,7.936
2022-12-02T08:14:20.694Z,7.936
2022-12-02T08:15:20.822Z,7.936
2022-12-02T08:16:21.153Z,7.936
2022-12-02T08:17:19.828Z,7.926
2022-12-02T08:18:20.750Z,7.936
2022-12-02T08:19:20.124Z,7.916
2022-12-02T08:20:20.274Z,7.936
2022-12-02T08:21:19.661Z,7.926
2022-12-02T08:22:20.102Z,7.875
2022-12-02T08:23:19.781Z,7.875
2022-12-02T08:24:20.881Z,7.885
2022-12-02T08:25:20.589Z,7.916
2022-12-02T08:26:20.368Z,7.936
2022-12-02T08:27:20.729Z,7.936
2022-12-02T08:28:20.671Z,7.936
2022-12-02T08:29:20.602Z,7.936
2022-12-02T08:30:26.262Z,7.936
2022-12-02T08:31:20.539Z,7.936
2022-12-02T08:32:25.362Z,7.875
2022-12-02T08:33:20.538Z,7.875
2022-12-02T08:34:20.476Z,7.906
2022-12-02T08:35:21.055Z,7.926
2022-12-02T08:36:25.546Z,7.875
2022-12-02T08:37:20.713Z,7.875
2022-12-02T08:38:25.573Z,7.895
2022-12-02T08:39:20.753Z,7.895
2022-12-02T08:40:25.628Z,7.875
2022-12-02T08:41:21.687Z,7.875
2022-12-02T08:42:20.653Z,7.875
2022-12-02T08:43:20.730Z,7.875
2022-12-02T08:44:20.071Z,7.875
2022-12-02T08:45:20.025Z,7.895
2022-12-02T08:46:33.573Z,7.885
2022-12-02T08:47:20.527Z,7.885
2022-12-02T08:48:20.300Z,7.895
2022-12-02T08:49:20.942Z,7.926
2022-12-02T08:50:29.956Z,7.926
2022-12-02T08:51:20.603Z,7.926
2022-12-02T08:52:35.309Z,7.833
2022-12-02T08:53:20.748Z,7.833
2022-12-02T08:54:20.996Z,7.843
2022-12-02T08:55:20.933Z,7.895
2022-12-02T08:56:35.501Z,7.906
2022-12-02T08:57:21.032Z,7.906
2022-12-02T08:58:20.441Z,7.875
2022-12-02T08:59:20.569Z,7.875
2022-12-02T09:00:39.342Z,7.833
2022-12-02T09:01:21.929Z,7.875
2022-12-02T09:03:21.586Z,7.875
2022-12-02T09:04:39.879Z,7.811
2022-12-02T09:05:21.060Z,7.811
2022-12-02T09:06:20.408Z,7.875
2022-12-02T09:07:21.075Z,7.875
2022-12-02T09:08:39.368Z,7.875
2022-12-02T09:09:21.156Z,7.875
2022-12-02T09:10:20.221Z,7.843
2022-12-02T09:11:20.968Z,7.875
2022-12-02T09:12:35.147Z,7.875
2022-12-02T09:13:20.580Z,7.875
2022-12-02T09:14:21.536Z,7.875
2022-12-02T09:15:21.227Z,7.822
2022-12-02T09:16:20.666Z,7.787
2022-12-02T09:17:21.121Z,7.866
2022-12-02T09:19:20.927Z,7.785
2022-12-02T09:21:21.782Z,7.875
2022-12-02T09:22:21.447Z,7.875
2022-12-02T09:23:21.094Z,7.854
2022-12-02T09:24:20.189Z,7.854
2022-12-02T09:25:20.458Z,7.833
2022-12-02T09:26:48.949Z,7.811
2022-12-02T09:27:21.167Z,7.811
2022-12-02T09:28:21.109Z,7.749
2022-12-02T09:29:20.399Z,7.708
2022-12-02T09:31:21.625Z,7.811
2022-12-02T09:32:49.238Z,7.811
2022-12-02T09:33:20.583Z,7.811
2022-12-02T09:34:42.763Z,7.854
2022-12-02T09:35:21.553Z,7.833
2022-12-02T09:36:21.127Z,7.864
2022-12-02T09:37:20.599Z,7.833
2022-12-02T09:39:20.435Z,7.833
2022-12-02T09:40:20.876Z,7.875
2022-12-02T09:41:21.550Z,7.854
2022-12-02T09:42:21.311Z,7.811
2022-12-02T09:43:20.647Z,7.811
2022-12-02T09:44:21.454Z,7.875
2022-12-02T09:45:20.859Z,7.822
2022-12-02T09:46:48.726Z,7.770
2022-12-02T09:47:21.601Z,7.770
2022-12-02T09:48:21.261Z,7.770
2022-12-02T09:49:21.056Z,7.811
2022-12-02T09:50:20.595Z,7.811
2022-12-02T09:51:21.340Z,7.833
2022-12-02T09:52:25.568Z,7.791
2022-12-02T09:53:21.052Z,7.686
2022-12-02T09:54:21.011Z,7.676
2022-12-02T09:55:20.503Z,7.624
2022-12-02T09:56:21.279Z,7.614
2022-12-02T09:57:20.857Z,7.645
2022-12-02T09:58:21.257Z,7.749
2022-12-02T09:59:20.772Z,7.791
2022-12-02T10:01:21.467Z,7.811
2022-12-02T10:02:20.823Z,7.811
2022-12-02T10:03:26.880Z,7.811
2022-12-02T10:04:21.280Z,7.811
2022-12-02T10:05:19.922Z,7.760
2022-12-02T10:06:21.768Z,7.686
2022-12-02T10:07:21.742Z,7.75
2022-12-02T10:09:21.095Z,7.811
2022-12-02T10:10:20.571Z,7.811
2022-12-02T10:11:21.250Z,7.791
2022-12-02T10:12:20.734Z,7.811
2022-12-02T10:13:21.500Z,7.811
2022-12-02T10:14:21.221Z,7.811
2022-12-02T10:15:20.543Z,7.708
2022-12-02T10:17:20.700Z,7.686
2022-12-02T10:18:21.308Z,7.739
2022-12-02T10:19:20.644Z,7.697
2022-12-02T10:20:21.656Z,7.729
2022-12-02T10:21:21.049Z,7.749
2022-12-02T10:22:20.605Z,7.749
2022-12-02T10:23:21.306Z,7.686
2022-12-02T10:24:20.928Z,7.739
2022-12-02T10:25:21.752Z,7.718
2022-12-02T10:26:20.777Z,7.718
2022-12-02T10:27:21.633Z,7.593
2022-12-02T10:28:21.409Z,7.593
2022-12-02T10:29:21.711Z,7.613
2022-12-02T10:31:23.088Z,7.644
2022-12-02T10:32:21.962Z,7.644
2022-12-02T10:33:21.970Z,7.739
2022-12-02T10:34:21.879Z,7.718
2022-12-02T10:35:21.723Z,7.75
2022-12-02T10:36:21.474Z,7.75
2022-12-02T10:37:20.818Z,7.583
2022-12-02T10:38:22.419Z,7.561
2022-12-02T10:39:21.420Z,7.561
2022-12-02T10:40:21.382Z,7.489
2022-12-02T10:41:21.631Z,7.458
2022-12-02T10:42:21.805Z,6.199
2022-12-02T10:43:21.362Z,7.537
2022-12-02T10:45:21.589Z,7.599
2022-12-02T10:46:21.189Z,7.599
2022-12-02T10:47:25.432Z,7.526
2022-12-02T10:48:21.032Z,7.561
2022-12-02T10:49:20.571Z,7.633
2022-12-02T10:50:21.571Z,7.686
2022-12-02T10:51:20.981Z,7.678
2022-12-02T10:52:20.954Z,7.674
2022-12-02T10:53:21.673Z,7.724
2022-12-02T10:54:21.362Z,7.724
2022-12-02T10:55:21.143Z,7.75
2022-12-02T10:56:20.357Z,7.75
2022-12-02T10:57:20.810Z,7.75
2022-12-02T10:58:21.523Z,7.739
2022-12-02T10:59:20.759Z,7.660
2022-12-02T11:01:26.181Z,7.75
2022-12-02T11:02:21.202Z,7.75
2022-12-02T11:03:25.822Z,7.75
2022-12-02T11:04:21.355Z,7.75
2022-12-02T11:05:25.810Z,7.801
2022-12-02T11:07:28.544Z,7.75
2022-12-02T11:08:27.464Z,7.75
2022-12-02T11:09:47.215Z,7.729
2022-12-02T11:10:20.997Z,7.729
2022-12-02T11:11:21.055Z,7.656
2022-12-02T11:12:21.242Z,7.625
2022-12-02T11:13:33.688Z,7.676
2022-12-02T11:14:21.891Z,7.676
2022-12-02T11:15:30.444Z,7.75
2022-12-02T11:17:35.395Z,7.760
2022-12-02T11:18:21.524Z,7.760
2022-12-02T11:19:34.895Z,7.75
2022-12-02T11:21:35.653Z,7.697
2022-12-02T11:22:21.426Z,7.697
2022-12-02T11:23:20.925Z,7.686
2022-12-02T11:24:21.384Z,7.686
2022-12-02T11:25:22.620Z,7.75
2022-12-02T11:26:21.392Z,7.75
2022-12-02T11:27:26.481Z,7.770
2022-12-02T11:28:20.912Z,7.770
2022-12-02T11:29:29.675Z,7.760
2022-12-02T11:31:40.128Z,7.811
2022-12-02T11:32:20.708Z,7.811
2022-12-02T11:33:29.977Z,7.811
2022-12-02T11:34:21.786Z,7.811
2022-12-02T11:35:32.524Z,7.811
2022-12-02T11:36:21.345Z,7.811
2022-12-02T11:37:35.262Z,7.811
2022-12-02T11:38:21.274Z,7.811
2022-12-02T11:39:20.801Z,7.864
2022-12-02T11:41:35.216Z,7.833
2022-12-02T11:42:21.183Z,7.822
2022-12-02T11:43:20.831Z,7.811
2022-12-02T11:44:21.428Z,7.822
2022-12-02T11:45:43.873Z,7.811
2022-12-02T11:46:26.507Z,7.843
2022-12-02T11:47:42.932Z,7.875
2022-12-02T11:49:21.378Z,7.875
2022-12-02T11:50:21.088Z,7.843
2022-12-02T11:51:21.231Z,7.875
2022-12-02T11:52:20.583Z,7.822
2022-12-02T11:53:21.756Z,7.811
2022-12-02T11:54:21.049Z,7.854
2022-12-02T11:55:49.208Z,6.5
2022-12-02T11:56:20.295Z,6.5
2022-12-02T11:57:21.312Z,7.875
2022-12-02T11:58:21.013Z,7.875
2022-12-02T11:59:48.154Z,7.875
2022-12-02T12:01:43.502Z,7.875
2022-12-02T12:02:21.432Z,7.875
2022-12-02T12:03:43.420Z,7.843
2022-12-02T12:04:21.151Z,7.854
2022-12-02T12:05:20.870Z,7.875
2022-12-02T12:06:21.301Z,7.875
2022-12-02T12:07:49.054Z,7.811
2022-12-02T12:08:21.197Z,7.811
2022-12-02T12:09:21.114Z,7.875
2022-12-02T12:10:21.548Z,7.875
2022-12-02T12:11:48.919Z,7.875
2022-12-02T12:13:21.461Z,7.885
2022-12-02T12:14:20.755Z,7.875
2022-12-02T12:15:22.053Z,7.875
2022-12-02T12:16:20.962Z,7.875
2022-12-02T12:17:21.736Z,7.875
2022-12-02T12:19:20.653Z,7.875
2022-12-02T12:21:21.041Z,7.848
2022-12-02T12:22:21.077Z,7.862
2022-12-02T12:23:20.510Z,7.875
2022-12-02T12:24:21.017Z,7.875
2022-12-02T12:25:23.452Z,7.875
2022-12-02T12:26:20.791Z,7.849
2022-12-02T12:27:21.737Z,7.875
2022-12-02T12:28:21.549Z,7.875
2022-12-02T12:29:21.421Z,7.875
2022-12-02T12:31:54.511Z,7.875
2022-12-02T12:33:21.351Z,7.875
2022-12-02T12:34:21.229Z,7.875
2022-12-02T12:35:21.168Z,7.875
2022-12-02T12:36:20.973Z,7.875
2022-12-02T12:37:21.403Z,7.885
2022-12-02T12:39:21.348Z,7.885
2022-12-02T12:40:20.808Z,7.875
2022-12-02T12:41:51.246Z,7.885
2022-12-02T12:42:21.009Z,7.885
2022-12-02T12:43:20.668Z,7.875
2022-12-02T12:44:24.461Z,7.875
2022-12-02T12:45:20.799Z,7.875
2022-12-02T12:47:22.701Z,7.875
2022-12-02T12:49:20.886Z,7.916
2022-12-02T12:50:25.761Z,7.926
2022-12-02T12:51:21.441Z,7.916
2022-12-02T12:52:21.788Z,7.906
2022-12-02T12:53:21.408Z,7.885
2022-12-02T12:54:21.149Z,7.875
2022-12-02T12:55:20.893Z,7.895
2022-12-02T12:56:21.623Z,7.936
2022-12-02T12:57:21.810Z,7.895
2022-12-02T12:58:21.728Z,7.895
2022-12-02T12:59:21.293Z,7.926
2022-12-02T13:01:24.755Z,7.926
2022-12-02T13:02:21.843Z,7.906
2022-12-02T13:03:21.751Z,7.916
2022-12-02T13:04:21.487Z,7.906
2022-12-02T13:05:21.013Z,7.885
2022-12-02T13:06:21.221Z,7.895
2022-12-02T13:07:20.461Z,7.926
2022-12-02T13:08:21.449Z,7.936
2022-12-02T13:09:21.622Z,7.916
2022-12-02T13:10:21.709Z,7.885
2022-12-02T13:11:21.375Z,7.916
2022-12-02T13:12:21.433Z,7.895
2022-12-02T13:13:21.678Z,7.875
2022-12-02T13:14:21.548Z,7.885
2022-12-02T13:15:21.648Z,7.906
2022-12-02T13:16:21.341Z,7.906
2022-12-02T13:17:21.571Z,7.936
2022-12-02T13:18:21.654Z,7.885
2022-12-02T13:19:21.091Z,7.875
2022-12-02T13:20:25.457Z,7.854
2022-12-02T13:21:21.032Z,7.854
2022-12-02T13:22:26.292Z,7.843
2022-12-02T13:23:21.692Z,7.843
2022-12-02T13:24:25.846Z,7.875
2022-12-02T13:25:21.122Z,7.875
2022-12-02T13:27:20.717Z,7.843
2022-12-02T13:28:21.541Z,7.811
2022-12-02T13:29:21.186Z,7.811
2022-12-02T13:30:25.938Z,7.811
2022-12-02T13:31:21.681Z,7.811
2022-12-02T13:32:21.265Z,7.811
2022-12-02T13:33:21.447Z,7.811
2022-12-02T13:34:29.223Z,7.811
2022-12-02T13:35:28.558Z,7.811
2022-12-02T13:36:28.971Z,7.811
2022-12-02T13:37:21.228Z,7.811
2022-12-02T13:39:21.214Z,7.811
2022-12-02T13:40:35.178Z,7.811
2022-12-02T13:41:20.244Z,7.811
2022-12-02T13:42:25.495Z,7.801
2022-12-02T13:43:21.612Z,7.811
2022-12-02T13:44:21.009Z,7.811
2022-12-02T13:45:21.092Z,7.811
2022-12-02T13:46:33.846Z,7.811
2022-12-02T13:47:21.465Z,7.799